sensor_id;sensor_type;location;lat;lon;timestamp;P1;durP1;ratioP1;P2;durP2;ratioP2
64894;SDS011;51588;53.702;10.208;2022-07-29T00:00:13;1.93;;;1.50;;
64894;SDS011;51588;53.702;10.208;2022-07-29T00:02:39;1.60;;;1.30;;
64894;SDS011;51588;53.702;10.208;2022-07-29T00:05:07;1.50;;;1.40;;
64894;SDS011;51588;53.702;10.208;2022-07-29T00:07:34;1.40;;;1.30;;
64894;SDS011;51588;53.702;10.208;2022-07-29T00:10:00;1.47;;;1.23;;
64894;SDS011;51588;53.702;10.208;2022-07-29T00:12:27;1.97;;;1.40;;
64894;SDS011;51588;53.702;10.208;2022-07-29T00:14:53;1.60;;;1.40;;
64894;SDS011;51588;53.702;10.208;2022-07-29T00:17:20;1.63;;;1.20;;
64894;SDS011;51588;53.702;10.208;2022-07-29T00:19:46;1.73;;;1.50;;
64894;SDS011;51588;53.702;10.208;2022-07-29T00:22:14;1.97;;;1.37;;
64894;SDS011;51588;53.702;10.208;2022-07-29T00:24:40;2.67;;;1.80;;
64894;SDS011;51588;53.702;10.208;2022-07-29T00:27:07;1.77;;;1.47;;
64894;SDS011;51588;53.702;10.208;2022-07-29T00:29:33;1.80;;;1.40;;
64894;SDS011;51588;53.702;10.208;2022-07-29T00:31:59;1.40;;;1.30;;
64894;SDS011;51588;53.702;10.208;2022-07-29T00:34:26;1.50;;;1.20;;
64894;SDS011;51588;53.702;10.208;2022-07-29T00:37:10;1.83;;;1.43;;
64894;SDS011;51588;53.702;10.208;2022-07-29T00:39:37;2.70;;;1.33;;
64894;SDS011;51588;53.702;10.208;2022-07-29T00:42:04;1.60;;;1.50;;
64894;SDS011;51588;53.702;10.208;2022-07-29T00:44:32;1.50;;;1.40;;
64894;SDS011;51588;53.702;10.208;2022-07-29T00:47:01;2.00;;;1.40;;
64894;SDS011;51588;53.702;10.208;2022-07-29T00:49:28;1.57;;;1.47;;
64894;SDS011;51588;53.702;10.208;2022-07-29T00:51:54;2.17;;;1.47;;
64894;SDS011;51588;53.702;10.208;2022-07-29T00:54:21;1.50;;;1.40;;
64894;SDS011;51588;53.702;10.208;2022-07-29T00:56:49;1.30;;;1.20;;
64894;SDS011;51588;53.702;10.208;2022-07-29T00:59:15;1.80;;;1.50;;
64894;SDS011;51588;53.702;10.208;2022-07-29T01:01:42;2.20;;;1.63;;
64894;SDS011;51588;53.702;10.208;2022-07-29T01:04:08;1.20;;;1.10;;
64894;SDS011;51588;53.702;10.208;2022-07-29T01:06:35;2.03;;;1.60;;
64894;SDS011;51588;53.702;10.208;2022-07-29T01:09:01;2.03;;;1.67;;
64894;SDS011;51588;53.702;10.208;2022-07-29T01:11:28;1.70;;;1.40;;
64894;SDS011;51588;53.702;10.208;2022-07-29T01:13:56;1.83;;;1.50;;
64894;SDS011;51588;53.702;10.208;2022-07-29T01:16:24;1.40;;;1.30;;
64894;SDS011;51588;53.702;10.208;2022-07-29T01:18:52;1.90;;;1.60;;
64894;SDS011;51588;53.702;10.208;2022-07-29T01:21:37;1.60;;;1.40;;
64894;SDS011;51588;53.702;10.208;2022-07-29T01:24:14;1.60;;;1.50;;
64894;SDS011;51588;53.702;10.208;2022-07-29T01:26:45;1.30;;;1.20;;
64894;SDS011;51588;53.702;10.208;2022-07-29T01:29:16;1.70;;;1.20;;
64894;SDS011;51588;53.702;10.208;2022-07-29T01:31:43;1.67;;;1.27;;
64894;SDS011;51588;53.702;10.208;2022-07-29T01:34:11;1.60;;;1.50;;
64894;SDS011;51588;53.702;10.208;2022-07-29T01:36:43;1.97;;;1.40;;
64894;SDS011;51588;53.702;10.208;2022-07-29T01:39:10;1.57;;;1.33;;
64894;SDS011;51588;53.702;10.208;2022-07-29T01:41:38;1.50;;;1.40;;
64894;SDS011;51588;53.702;10.208;2022-07-29T01:44:17;1.60;;;1.50;;
64894;SDS011;51588;53.702;10.208;2022-07-29T01:46:47;2.07;;;1.43;;
64894;SDS011;51588;53.702;10.208;2022-07-29T01:49:16;1.57;;;1.47;;
64894;SDS011;51588;53.702;10.208;2022-07-29T01:51:46;2.63;;;1.33;;
64894;SDS011;51588;53.702;10.208;2022-07-29T01:54:14;2.07;;;1.47;;
64894;SDS011;51588;53.702;10.208;2022-07-29T01:56:42;1.60;;;1.43;;
64894;SDS011;51588;53.702;10.208;2022-07-29T01:59:09;3.17;;;1.50;;
64894;SDS011;51588;53.702;10.208;2022-07-29T02:01:37;2.03;;;1.40;;
64894;SDS011;51588;53.702;10.208;2022-07-29T02:04:06;1.50;;;1.40;;
64894;SDS011;51588;53.702;10.208;2022-07-29T02:06:34;1.50;;;1.40;;
64894;SDS011;51588;53.702;10.208;2022-07-29T02:09:02;2.13;;;1.53;;
64894;SDS011;51588;53.702;10.208;2022-07-29T02:11:30;2.33;;;1.50;;
64894;SDS011;51588;53.702;10.208;2022-07-29T02:13:57;1.70;;;1.60;;
64894;SDS011;51588;53.702;10.208;2022-07-29T02:16:24;2.30;;;1.60;;
64894;SDS011;51588;53.702;10.208;2022-07-29T02:18:54;2.10;;;1.63;;
64894;SDS011;51588;53.702;10.208;2022-07-29T02:21:23;1.67;;;1.50;;
64894;SDS011;51588;53.702;10.208;2022-07-29T02:23:50;1.90;;;1.70;;
64894;SDS011;51588;53.702;10.208;2022-07-29T02:26:18;1.67;;;1.57;;
64894;SDS011;51588;53.702;10.208;2022-07-29T02:28:45;2.10;;;1.93;;
64894;SDS011;51588;53.702;10.208;2022-07-29T02:31:12;2.00;;;1.80;;
64894;SDS011;51588;53.702;10.208;2022-07-29T02:33:39;2.57;;;1.73;;
64894;SDS011;51588;53.702;10.208;2022-07-29T02:36:07;4.10;;;1.93;;
64894;SDS011;51588;53.702;10.208;2022-07-29T02:38:34;1.50;;;1.40;;
64894;SDS011;51588;53.702;10.208;2022-07-29T02:41:17;3.77;;;1.97;;
64894;SDS011;51588;53.702;10.208;2022-07-29T02:43:45;1.77;;;1.63;;
64894;SDS011;51588;53.702;10.208;2022-07-29T02:46:13;1.90;;;1.70;;
64894;SDS011;51588;53.702;10.208;2022-07-29T02:48:41;1.87;;;1.67;;
64894;SDS011;51588;53.702;10.208;2022-07-29T02:51:12;1.90;;;1.70;;
64894;SDS011;51588;53.702;10.208;2022-07-29T02:53:39;2.87;;;1.80;;
64894;SDS011;51588;53.702;10.208;2022-07-29T02:56:08;2.43;;;2.10;;
64894;SDS011;51588;53.702;10.208;2022-07-29T02:58:38;2.07;;;1.80;;
64894;SDS011;51588;53.702;10.208;2022-07-29T03:01:08;1.87;;;1.63;;
64894;SDS011;51588;53.702;10.208;2022-07-29T03:03:37;2.00;;;1.80;;
64894;SDS011;51588;53.702;10.208;2022-07-29T03:06:04;2.70;;;1.83;;
64894;SDS011;51588;53.702;10.208;2022-07-29T03:08:32;2.90;;;1.97;;
64894;SDS011;51588;53.702;10.208;2022-07-29T03:10:59;1.80;;;1.60;;
64894;SDS011;51588;53.702;10.208;2022-07-29T03:13:26;2.13;;;1.60;;
64894;SDS011;51588;53.702;10.208;2022-07-29T03:15:53;2.23;;;1.73;;
64894;SDS011;51588;53.702;10.208;2022-07-29T03:18:20;2.30;;;2.03;;
64894;SDS011;51588;53.702;10.208;2022-07-29T03:20:47;2.67;;;1.83;;
64894;SDS011;51588;53.702;10.208;2022-07-29T03:23:17;3.77;;;1.80;;
64894;SDS011;51588;53.702;10.208;2022-07-29T03:25:45;1.83;;;1.63;;
64894;SDS011;51588;53.702;10.208;2022-07-29T03:28:12;2.50;;;2.00;;
64894;SDS011;51588;53.702;10.208;2022-07-29T03:30:38;2.50;;;2.07;;
64894;SDS011;51588;53.702;10.208;2022-07-29T03:33:05;2.47;;;2.00;;
64894;SDS011;51588;53.702;10.208;2022-07-29T03:35:31;3.00;;;2.33;;
64894;SDS011;51588;53.702;10.208;2022-07-29T03:37:57;2.40;;;1.90;;
64894;SDS011;51588;53.702;10.208;2022-07-29T03:40:25;1.87;;;1.70;;
64894;SDS011;51588;53.702;10.208;2022-07-29T03:42:55;3.03;;;1.63;;
64894;SDS011;51588;53.702;10.208;2022-07-29T03:45:21;2.10;;;1.80;;
64894;SDS011;51588;53.702;10.208;2022-07-29T03:47:50;2.93;;;2.03;;
64894;SDS011;51588;53.702;10.208;2022-07-29T03:50:17;2.87;;;1.70;;
64894;SDS011;51588;53.702;10.208;2022-07-29T03:52:45;2.40;;;2.10;;
64894;SDS011;51588;53.702;10.208;2022-07-29T03:55:12;3.73;;;2.13;;
64894;SDS011;51588;53.702;10.208;2022-07-29T03:57:39;3.30;;;2.37;;
64894;SDS011;51588;53.702;10.208;2022-07-29T04:00:08;2.40;;;2.17;;
64894;SDS011;51588;53.702;10.208;2022-07-29T04:02:34;2.20;;;2.00;;
64894;SDS011;51588;53.702;10.208;2022-07-29T04:05:01;2.33;;;2.03;;
64894;SDS011;51588;53.702;10.208;2022-07-29T04:07:28;2.40;;;1.83;;
64894;SDS011;51588;53.702;10.208;2022-07-29T04:09:54;2.27;;;1.90;;
64894;SDS011;51588;53.702;10.208;2022-07-29T04:12:21;2.17;;;1.97;;
64894;SDS011;51588;53.702;10.208;2022-07-29T04:14:47;3.47;;;1.77;;
64894;SDS011;51588;53.702;10.208;2022-07-29T04:17:16;2.20;;;1.80;;
64894;SDS011;51588;53.702;10.208;2022-07-29T04:19:42;2.20;;;2.00;;
64894;SDS011;51588;53.702;10.208;2022-07-29T04:22:09;2.70;;;1.87;;
64894;SDS011;51588;53.702;10.208;2022-07-29T04:24:35;2.20;;;2.00;;
64894;SDS011;51588;53.702;10.208;2022-07-29T04:27:01;3.10;;;1.80;;
64894;SDS011;51588;53.702;10.208;2022-07-29T04:29:28;3.03;;;2.20;;
64894;SDS011;51588;53.702;10.208;2022-07-29T04:31:54;2.30;;;2.10;;
64894;SDS011;51588;53.702;10.208;2022-07-29T04:34:22;2.23;;;2.03;;
64894;SDS011;51588;53.702;10.208;2022-07-29T04:36:48;2.17;;;1.93;;
64894;SDS011;51588;53.702;10.208;2022-07-29T04:39:15;2.10;;;1.90;;
64894;SDS011;51588;53.702;10.208;2022-07-29T04:41:43;2.63;;;2.10;;
64894;SDS011;51588;53.702;10.208;2022-07-29T04:44:09;2.30;;;1.93;;
64894;SDS011;51588;53.702;10.208;2022-07-29T04:46:36;2.90;;;2.20;;
64894;SDS011;51588;53.702;10.208;2022-07-29T04:49:02;4.50;;;2.23;;
64894;SDS011;51588;53.702;10.208;2022-07-29T04:51:30;2.20;;;2.00;;
64894;SDS011;51588;53.702;10.208;2022-07-29T04:53:56;3.00;;;2.37;;
64894;SDS011;51588;53.702;10.208;2022-07-29T04:56:23;2.30;;;2.00;;
64894;SDS011;51588;53.702;10.208;2022-07-29T04:58:49;2.60;;;1.97;;
64894;SDS011;51588;53.702;10.208;2022-07-29T05:01:15;1.80;;;1.70;;
64894;SDS011;51588;53.702;10.208;2022-07-29T05:03:42;2.27;;;1.90;;
64894;SDS011;51588;53.702;10.208;2022-07-29T05:06:09;1.80;;;1.70;;
64894;SDS011;51588;53.702;10.208;2022-07-29T05:08:36;2.70;;;2.50;;
64894;SDS011;51588;53.702;10.208;2022-07-29T05:11:03;2.50;;;2.10;;
64894;SDS011;51588;53.702;10.208;2022-07-29T05:13:29;2.87;;;2.00;;
64894;SDS011;51588;53.702;10.208;2022-07-29T05:15:56;2.30;;;2.10;;
64894;SDS011;51588;53.702;10.208;2022-07-29T05:18:23;2.70;;;1.87;;
64894;SDS011;51588;53.702;10.208;2022-07-29T05:20:49;2.10;;;1.90;;
64894;SDS011;51588;53.702;10.208;2022-07-29T05:23:16;2.30;;;2.10;;
64894;SDS011;51588;53.702;10.208;2022-07-29T05:25:44;3.27;;;2.20;;
64894;SDS011;51588;53.702;10.208;2022-07-29T05:28:11;1.87;;;1.70;;
64894;SDS011;51588;53.702;10.208;2022-07-29T05:30:37;2.00;;;1.83;;
64894;SDS011;51588;53.702;10.208;2022-07-29T05:33:04;2.57;;;2.10;;
64894;SDS011;51588;53.702;10.208;2022-07-29T05:35:30;2.93;;;2.23;;
64894;SDS011;51588;53.702;10.208;2022-07-29T05:37:56;2.47;;;1.80;;
64894;SDS011;51588;53.702;10.208;2022-07-29T05:40:23;2.60;;;1.97;;
64894;SDS011;51588;53.702;10.208;2022-07-29T05:42:51;2.90;;;2.20;;
64894;SDS011;51588;53.702;10.208;2022-07-29T05:45:17;2.23;;;2.00;;
64894;SDS011;51588;53.702;10.208;2022-07-29T05:47:43;2.30;;;2.10;;
64894;SDS011;51588;53.702;10.208;2022-07-29T05:50:10;2.40;;;2.20;;
64894;SDS011;51588;53.702;10.208;2022-07-29T05:52:36;2.13;;;1.93;;
64894;SDS011;51588;53.702;10.208;2022-07-29T05:55:03;2.53;;;2.33;;
64894;SDS011;51588;53.702;10.208;2022-07-29T05:57:30;2.40;;;1.90;;
64894;SDS011;51588;53.702;10.208;2022-07-29T05:59:58;2.93;;;2.17;;
64894;SDS011;51588;53.702;10.208;2022-07-29T06:02:24;3.13;;;2.17;;
64894;SDS011;51588;53.702;10.208;2022-07-29T06:04:51;2.83;;;2.53;;
64894;SDS011;51588;53.702;10.208;2022-07-29T06:07:17;2.37;;;2.10;;
64894;SDS011;51588;53.702;10.208;2022-07-29T06:09:43;2.67;;;2.20;;
64894;SDS011;51588;53.702;10.208;2022-07-29T06:12:10;3.83;;;2.10;;
64894;SDS011;51588;53.702;10.208;2022-07-29T06:14:36;2.63;;;2.27;;
64894;SDS011;51588;53.702;10.208;2022-07-29T06:17:04;2.80;;;2.50;;
64894;SDS011;51588;53.702;10.208;2022-07-29T06:19:33;2.63;;;2.20;;
64894;SDS011;51588;53.702;10.208;2022-07-29T06:21:59;2.93;;;2.30;;
64894;SDS011;51588;53.702;10.208;2022-07-29T06:24:26;2.20;;;2.00;;
64894;SDS011;51588;53.702;10.208;2022-07-29T06:26:52;2.67;;;2.00;;
64894;SDS011;51588;53.702;10.208;2022-07-29T06:29:18;3.40;;;2.07;;
64894;SDS011;51588;53.702;10.208;2022-07-29T06:31:45;2.27;;;1.90;;
64894;SDS011;51588;53.702;10.208;2022-07-29T06:34:12;2.50;;;2.20;;
64894;SDS011;51588;53.702;10.208;2022-07-29T06:36:39;2.90;;;2.37;;
64894;SDS011;51588;53.702;10.208;2022-07-29T06:39:05;2.40;;;1.90;;
64894;SDS011;51588;53.702;10.208;2022-07-29T06:41:32;2.50;;;2.10;;
64894;SDS011;51588;53.702;10.208;2022-07-29T06:43:59;2.80;;;2.23;;
64894;SDS011;51588;53.702;10.208;2022-07-29T06:46:25;2.83;;;2.17;;
64894;SDS011;51588;53.702;10.208;2022-07-29T06:48:52;4.50;;;2.43;;
64894;SDS011;51588;53.702;10.208;2022-07-29T06:51:20;2.40;;;2.10;;
64894;SDS011;51588;53.702;10.208;2022-07-29T06:53:47;3.23;;;2.17;;
64894;SDS011;51588;53.702;10.208;2022-07-29T06:56:13;2.17;;;1.97;;
64894;SDS011;51588;53.702;10.208;2022-07-29T06:58:40;2.33;;;1.87;;
64894;SDS011;51588;53.702;10.208;2022-07-29T07:01:06;3.53;;;2.60;;
64894;SDS011;51588;53.702;10.208;2022-07-29T07:03:32;2.60;;;2.13;;
64894;SDS011;51588;53.702;10.208;2022-07-29T07:05:59;2.67;;;2.23;;
64894;SDS011;51588;53.702;10.208;2022-07-29T07:08:26;2.67;;;2.37;;
64894;SDS011;51588;53.702;10.208;2022-07-29T07:10:53;2.50;;;2.17;;
64894;SDS011;51588;53.702;10.208;2022-07-29T07:13:20;4.00;;;2.20;;
64894;SDS011;51588;53.702;10.208;2022-07-29T07:15:46;3.20;;;2.30;;
64894;SDS011;51588;53.702;10.208;2022-07-29T07:18:13;2.93;;;2.60;;
64894;SDS011;51588;53.702;10.208;2022-07-29T07:20:39;3.07;;;2.20;;
64894;SDS011;51588;53.702;10.208;2022-07-29T07:23:06;2.83;;;2.27;;
64894;SDS011;51588;53.702;10.208;2022-07-29T07:25:34;3.20;;;2.40;;
64894;SDS011;51588;53.702;10.208;2022-07-29T07:28:00;3.03;;;2.10;;
64894;SDS011;51588;53.702;10.208;2022-07-29T07:30:26;2.50;;;1.97;;
64894;SDS011;51588;53.702;10.208;2022-07-29T07:32:53;2.97;;;2.10;;
64894;SDS011;51588;53.702;10.208;2022-07-29T07:35:20;3.10;;;2.43;;
64894;SDS011;51588;53.702;10.208;2022-07-29T07:37:46;3.23;;;2.10;;
64894;SDS011;51588;53.702;10.208;2022-07-29T07:40:13;2.73;;;2.10;;
64894;SDS011;51588;53.702;10.208;2022-07-29T07:42:41;2.50;;;2.30;;
64894;SDS011;51588;53.702;10.208;2022-07-29T07:45:07;2.70;;;2.20;;
64894;SDS011;51588;53.702;10.208;2022-07-29T07:47:35;2.17;;;1.97;;
64894;SDS011;51588;53.702;10.208;2022-07-29T07:50:01;2.57;;;2.10;;
64894;SDS011;51588;53.702;10.208;2022-07-29T07:52:28;3.00;;;2.30;;
64894;SDS011;51588;53.702;10.208;2022-07-29T07:54:54;3.10;;;2.20;;
64894;SDS011;51588;53.702;10.208;2022-07-29T07:57:21;2.77;;;1.70;;
64894;SDS011;51588;53.702;10.208;2022-07-29T07:59:48;2.47;;;2.27;;
64894;SDS011;51588;53.702;10.208;2022-07-29T08:02:15;3.73;;;2.40;;
64894;SDS011;51588;53.702;10.208;2022-07-29T08:04:41;3.60;;;2.20;;
64894;SDS011;51588;53.702;10.208;2022-07-29T08:07:08;2.50;;;2.10;;
64894;SDS011;51588;53.702;10.208;2022-07-29T08:09:35;3.40;;;2.30;;
64894;SDS011;51588;53.702;10.208;2022-07-29T08:12:01;2.23;;;2.03;;
64894;SDS011;51588;53.702;10.208;2022-07-29T08:14:28;2.40;;;2.07;;
64894;SDS011;51588;53.702;10.208;2022-07-29T08:16:56;2.37;;;2.07;;
64894;SDS011;51588;53.702;10.208;2022-07-29T08:19:23;3.30;;;2.27;;
64894;SDS011;51588;53.702;10.208;2022-07-29T08:21:49;2.20;;;2.00;;
64894;SDS011;51588;53.702;10.208;2022-07-29T08:24:17;2.63;;;2.30;;
64894;SDS011;51588;53.702;10.208;2022-07-29T08:27:01;2.60;;;2.10;;
64894;SDS011;51588;53.702;10.208;2022-07-29T08:29:27;2.53;;;2.10;;
64894;SDS011;51588;53.702;10.208;2022-07-29T08:31:53;3.10;;;2.13;;
64894;SDS011;51588;53.702;10.208;2022-07-29T08:34:22;2.70;;;2.13;;
64894;SDS011;51588;53.702;10.208;2022-07-29T08:36:48;2.30;;;1.93;;
64894;SDS011;51588;53.702;10.208;2022-07-29T08:39:14;2.23;;;2.03;;
64894;SDS011;51588;53.702;10.208;2022-07-29T08:41:41;2.90;;;2.30;;
64894;SDS011;51588;53.702;10.208;2022-07-29T08:44:07;2.30;;;2.03;;
64894;SDS011;51588;53.702;10.208;2022-07-29T08:46:36;2.83;;;1.90;;
64894;SDS011;51588;53.702;10.208;2022-07-29T08:49:03;2.33;;;2.00;;
64894;SDS011;51588;53.702;10.208;2022-07-29T08:51:30;3.63;;;2.03;;
64894;SDS011;51588;53.702;10.208;2022-07-29T08:54:00;2.53;;;2.30;;
64894;SDS011;51588;53.702;10.208;2022-07-29T08:56:26;2.30;;;2.03;;
64894;SDS011;51588;53.702;10.208;2022-07-29T08:58:53;2.77;;;2.17;;
64894;SDS011;51588;53.702;10.208;2022-07-29T09:01:23;3.17;;;2.23;;
64894;SDS011;51588;53.702;10.208;2022-07-29T09:03:50;2.67;;;2.20;;
64894;SDS011;51588;53.702;10.208;2022-07-29T09:06:20;2.93;;;2.60;;
64894;SDS011;51588;53.702;10.208;2022-07-29T09:08:48;2.30;;;2.10;;
64894;SDS011;51588;53.702;10.208;2022-07-29T09:11:15;3.67;;;2.33;;
64894;SDS011;51588;53.702;10.208;2022-07-29T09:13:41;3.00;;;2.30;;
64894;SDS011;51588;53.702;10.208;2022-07-29T09:16:08;2.77;;;2.20;;
64894;SDS011;51588;53.702;10.208;2022-07-29T09:18:35;2.30;;;2.10;;
64894;SDS011;51588;53.702;10.208;2022-07-29T09:21:02;2.53;;;2.30;;
64894;SDS011;51588;53.702;10.208;2022-07-29T09:26:29;2.43;;;2.17;;
64894;SDS011;51588;53.702;10.208;2022-07-29T09:28:56;2.80;;;2.23;;
64894;SDS011;51588;53.702;10.208;2022-07-29T09:31:26;3.70;;;2.43;;
64894;SDS011;51588;53.702;10.208;2022-07-29T09:33:57;3.37;;;2.37;;
64894;SDS011;51588;53.702;10.208;2022-07-29T09:36:25;2.30;;;2.10;;
64894;SDS011;51588;53.702;10.208;2022-07-29T09:38:56;2.70;;;2.00;;
64894;SDS011;51588;53.702;10.208;2022-07-29T09:41:23;3.20;;;2.30;;
64894;SDS011;51588;53.702;10.208;2022-07-29T09:43:54;2.50;;;2.20;;
64894;SDS011;51588;53.702;10.208;2022-07-29T09:46:21;2.37;;;2.17;;
64894;SDS011;51588;53.702;10.208;2022-07-29T09:48:56;2.23;;;2.03;;
64894;SDS011;51588;53.702;10.208;2022-07-29T09:51:31;2.77;;;2.47;;
64894;SDS011;51588;53.702;10.208;2022-07-29T09:53:57;2.50;;;2.00;;
64894;SDS011;51588;53.702;10.208;2022-07-29T09:56:37;2.70;;;2.20;;
64894;SDS011;51588;53.702;10.208;2022-07-29T09:59:06;2.73;;;2.37;;
64894;SDS011;51588;53.702;10.208;2022-07-29T10:01:32;2.40;;;1.83;;
64894;SDS011;51588;53.702;10.208;2022-07-29T10:03:59;2.47;;;2.20;;
64894;SDS011;51588;53.702;10.208;2022-07-29T10:06:26;2.33;;;2.00;;
64894;SDS011;51588;53.702;10.208;2022-07-29T10:08:52;2.67;;;2.00;;
64894;SDS011;51588;53.702;10.208;2022-07-29T10:11:19;3.00;;;2.30;;
64894;SDS011;51588;53.702;10.208;2022-07-29T10:13:46;2.83;;;2.17;;
64894;SDS011;51588;53.702;10.208;2022-07-29T10:16:14;3.20;;;2.30;;
64894;SDS011;51588;53.702;10.208;2022-07-29T10:18:42;2.87;;;2.30;;
64894;SDS011;51588;53.702;10.208;2022-07-29T10:21:09;3.10;;;2.13;;
64894;SDS011;51588;53.702;10.208;2022-07-29T10:23:35;2.40;;;2.10;;
64894;SDS011;51588;53.702;10.208;2022-07-29T10:26:02;2.50;;;1.87;;
64894;SDS011;51588;53.702;10.208;2022-07-29T10:28:29;2.50;;;2.30;;
64894;SDS011;51588;53.702;10.208;2022-07-29T10:30:58;2.70;;;2.13;;
64894;SDS011;51588;53.702;10.208;2022-07-29T10:33:34;2.27;;;1.97;;
64894;SDS011;51588;53.702;10.208;2022-07-29T10:36:10;2.43;;;2.17;;
64894;SDS011;51588;53.702;10.208;2022-07-29T10:38:43;3.07;;;2.10;;
64894;SDS011;51588;53.702;10.208;2022-07-29T10:41:12;2.50;;;1.90;;
64894;SDS011;51588;53.702;10.208;2022-07-29T10:43:56;2.27;;;2.00;;
64894;SDS011;51588;53.702;10.208;2022-07-29T10:46:24;2.90;;;2.03;;
64894;SDS011;51588;53.702;10.208;2022-07-29T10:51:59;3.03;;;2.20;;
64894;SDS011;51588;53.702;10.208;2022-07-29T10:54:39;2.47;;;2.10;;
64894;SDS011;51588;53.702;10.208;2022-07-29T10:57:16;2.37;;;2.17;;
64894;SDS011;51588;53.702;10.208;2022-07-29T10:59:44;2.10;;;1.90;;
64894;SDS011;51588;53.702;10.208;2022-07-29T11:05:05;3.13;;;2.03;;
64894;SDS011;51588;53.702;10.208;2022-07-29T11:07:33;2.13;;;1.93;;
64894;SDS011;51588;53.702;10.208;2022-07-29T11:12:45;1.80;;;1.70;;
64894;SDS011;51588;53.702;10.208;2022-07-29T11:15:13;1.80;;;1.70;;
64894;SDS011;51588;53.702;10.208;2022-07-29T11:20:32;2.43;;;2.00;;
64894;SDS011;51588;53.702;10.208;2022-07-29T11:23:00;4.20;;;2.03;;
64894;SDS011;51588;53.702;10.208;2022-07-29T11:25:27;2.37;;;2.17;;
64894;SDS011;51588;53.702;10.208;2022-07-29T11:27:54;2.03;;;1.80;;
64894;SDS011;51588;53.702;10.208;2022-07-29T11:30:47;3.10;;;2.40;;
64894;SDS011;51588;53.702;10.208;2022-07-29T11:33:26;2.50;;;2.00;;
64894;SDS011;51588;53.702;10.208;2022-07-29T11:36:06;3.20;;;1.97;;
64894;SDS011;51588;53.702;10.208;2022-07-29T11:38:34;2.50;;;1.90;;
64894;SDS011;51588;53.702;10.208;2022-07-29T11:41:18;2.87;;;2.30;;
64894;SDS011;51588;53.702;10.208;2022-07-29T11:43:45;2.33;;;1.90;;
64894;SDS011;51588;53.702;10.208;2022-07-29T11:46:12;2.53;;;1.90;;
64894;SDS011;51588;53.702;10.208;2022-07-29T11:48:41;2.40;;;2.03;;
64894;SDS011;51588;53.702;10.208;2022-07-29T11:51:09;2.33;;;2.00;;
64894;SDS011;51588;53.702;10.208;2022-07-29T11:53:37;2.20;;;2.00;;
64894;SDS011;51588;53.702;10.208;2022-07-29T11:56:03;2.50;;;2.00;;
64894;SDS011;51588;53.702;10.208;2022-07-29T11:58:30;2.70;;;2.13;;
64894;SDS011;51588;53.702;10.208;2022-07-29T12:00:56;2.23;;;2.07;;
64894;SDS011;51588;53.702;10.208;2022-07-29T12:03:24;3.53;;;2.30;;
64894;SDS011;51588;53.702;10.208;2022-07-29T12:05:51;2.50;;;2.30;;
64894;SDS011;51588;53.702;10.208;2022-07-29T12:08:18;2.47;;;2.20;;
64894;SDS011;51588;53.702;10.208;2022-07-29T12:10:46;2.20;;;2.00;;
64894;SDS011;51588;53.702;10.208;2022-07-29T12:13:13;4.90;;;2.47;;
64894;SDS011;51588;53.702;10.208;2022-07-29T12:15:40;4.50;;;2.27;;
64894;SDS011;51588;53.702;10.208;2022-07-29T12:18:15;3.50;;;2.13;;
64894;SDS011;51588;53.702;10.208;2022-07-29T12:20:41;2.33;;;2.13;;
64894;SDS011;51588;53.702;10.208;2022-07-29T12:23:09;3.23;;;2.10;;
64894;SDS011;51588;53.702;10.208;2022-07-29T12:25:37;3.60;;;2.10;;
64894;SDS011;51588;53.702;10.208;2022-07-29T12:28:06;2.87;;;2.30;;
64894;SDS011;51588;53.702;10.208;2022-07-29T12:30:40;1.97;;;1.73;;
64894;SDS011;51588;53.702;10.208;2022-07-29T12:33:10;3.00;;;2.13;;
64894;SDS011;51588;53.702;10.208;2022-07-29T12:35:37;2.60;;;2.30;;
64894;SDS011;51588;53.702;10.208;2022-07-29T12:38:04;4.00;;;2.37;;
64894;SDS011;51588;53.702;10.208;2022-07-29T12:40:31;2.80;;;2.10;;
64894;SDS011;51588;53.702;10.208;2022-07-29T12:43:09;3.40;;;2.23;;
64894;SDS011;51588;53.702;10.208;2022-07-29T12:45:35;4.03;;;2.07;;
64894;SDS011;51588;53.702;10.208;2022-07-29T12:48:02;2.77;;;1.90;;
64894;SDS011;51588;53.702;10.208;2022-07-29T12:50:28;2.30;;;2.07;;
64894;SDS011;51588;53.702;10.208;2022-07-29T12:53:07;2.87;;;2.10;;
64894;SDS011;51588;53.702;10.208;2022-07-29T12:55:43;3.20;;;2.37;;
64894;SDS011;51588;53.702;10.208;2022-07-29T12:58:24;2.53;;;2.10;;
64894;SDS011;51588;53.702;10.208;2022-07-29T13:00:58;3.93;;;2.33;;
64894;SDS011;51588;53.702;10.208;2022-07-29T13:03:24;2.80;;;1.90;;
64894;SDS011;51588;53.702;10.208;2022-07-29T13:05:50;3.47;;;2.70;;
64894;SDS011;51588;53.702;10.208;2022-07-29T13:08:17;4.00;;;2.20;;
64894;SDS011;51588;53.702;10.208;2022-07-29T13:10:45;2.33;;;1.97;;
64894;SDS011;51588;53.702;10.208;2022-07-29T13:13:12;2.70;;;2.10;;
64894;SDS011;51588;53.702;10.208;2022-07-29T13:15:41;3.03;;;2.30;;
64894;SDS011;51588;53.702;10.208;2022-07-29T13:20:49;2.20;;;2.00;;
64894;SDS011;51588;53.702;10.208;2022-07-29T13:23:15;3.40;;;2.20;;
64894;SDS011;51588;53.702;10.208;2022-07-29T13:25:41;3.37;;;2.20;;
64894;SDS011;51588;53.702;10.208;2022-07-29T13:28:08;2.13;;;1.90;;
64894;SDS011;51588;53.702;10.208;2022-07-29T13:30:36;2.70;;;2.20;;
64894;SDS011;51588;53.702;10.208;2022-07-29T13:33:04;2.10;;;2.00;;
64894;SDS011;51588;53.702;10.208;2022-07-29T13:35:30;2.37;;;2.10;;
64894;SDS011;51588;53.702;10.208;2022-07-29T13:37:56;3.07;;;2.33;;
64894;SDS011;51588;53.702;10.208;2022-07-29T13:40:23;2.30;;;2.10;;
64894;SDS011;51588;53.702;10.208;2022-07-29T13:42:49;2.43;;;2.10;;
64894;SDS011;51588;53.702;10.208;2022-07-29T13:45:15;2.70;;;2.50;;
64894;SDS011;51588;53.702;10.208;2022-07-29T13:47:42;2.70;;;2.40;;
64894;SDS011;51588;53.702;10.208;2022-07-29T13:50:10;2.70;;;2.30;;
64894;SDS011;51588;53.702;10.208;2022-07-29T13:52:36;2.60;;;2.10;;
64894;SDS011;51588;53.702;10.208;2022-07-29T13:55:04;3.87;;;2.27;;
64894;SDS011;51588;53.702;10.208;2022-07-29T13:57:30;3.50;;;2.43;;
64894;SDS011;51588;53.702;10.208;2022-07-29T13:59:56;2.20;;;1.90;;
64894;SDS011;51588;53.702;10.208;2022-07-29T14:02:23;2.23;;;1.80;;
64894;SDS011;51588;53.702;10.208;2022-07-29T14:04:49;2.93;;;2.40;;
64894;SDS011;51588;53.702;10.208;2022-07-29T14:07:17;2.37;;;2.07;;
64894;SDS011;51588;53.702;10.208;2022-07-29T14:09:43;3.30;;;2.07;;
64894;SDS011;51588;53.702;10.208;2022-07-29T14:12:10;2.23;;;2.03;;
64894;SDS011;51588;53.702;10.208;2022-07-29T14:14:37;2.20;;;2.00;;
64894;SDS011;51588;53.702;10.208;2022-07-29T14:17:03;2.30;;;2.10;;
64894;SDS011;51588;53.702;10.208;2022-07-29T14:19:31;3.10;;;2.30;;
64894;SDS011;51588;53.702;10.208;2022-07-29T14:22:00;4.23;;;2.30;;
64894;SDS011;51588;53.702;10.208;2022-07-29T14:24:28;2.50;;;2.30;;
64894;SDS011;51588;53.702;10.208;2022-07-29T14:26:54;2.40;;;2.17;;
64894;SDS011;51588;53.702;10.208;2022-07-29T14:29:20;3.30;;;2.07;;
64894;SDS011;51588;53.702;10.208;2022-07-29T14:31:47;3.03;;;1.90;;
64894;SDS011;51588;53.702;10.208;2022-07-29T14:34:13;2.50;;;2.10;;
64894;SDS011;51588;53.702;10.208;2022-07-29T14:36:40;2.40;;;1.97;;
64894;SDS011;51588;53.702;10.208;2022-07-29T14:39:07;2.57;;;2.20;;
64894;SDS011;51588;53.702;10.208;2022-07-29T14:41:34;4.87;;;2.43;;
64894;SDS011;51588;53.702;10.208;2022-07-29T14:44:01;2.33;;;2.13;;
64894;SDS011;51588;53.702;10.208;2022-07-29T14:46:27;1.70;;;1.60;;
64894;SDS011;51588;53.702;10.208;2022-07-29T14:48:53;3.90;;;2.53;;
64894;SDS011;51588;53.702;10.208;2022-07-29T14:51:20;3.87;;;2.17;;
64894;SDS011;51588;53.702;10.208;2022-07-29T14:53:46;3.00;;;2.20;;